createdAt,value
2023-05-13T00:01:44.266Z,73.60
2023-05-13T00:04:11.220Z,73.60
2023-05-13T00:06:38.414Z,73.50
2023-05-13T00:09:05.417Z,73.30
2023-05-13T00:11:32.339Z,74.10
2023-05-13T00:13:59.229Z,74.20
2023-05-13T00:16:27.765Z,74.70
2023-05-13T00:18:55.722Z,75.10
2023-05-13T00:21:23.469Z,75.10
2023-05-13T00:23:50.432Z,75.40
2023-05-13T00:26:17.367Z,75.50
2023-05-13T00:28:47.342Z,76.00
2023-05-13T00:31:14.257Z,76.10
2023-05-13T00:33:41.162Z,76.20
2023-05-13T00:36:10.147Z,76.60
2023-05-13T00:38:38.009Z,77.00
2023-05-13T00:41:05.896Z,77.10
2023-05-13T00:43:32.779Z,77.00
2023-05-13T00:46:00.245Z,77.10
2023-05-13T00:48:27.461Z,77.00
2023-05-13T00:50:54.383Z,77.10
2023-05-13T00:53:21.627Z,77.30
2023-05-13T00:55:48.584Z,77.70
2023-05-13T00:58:17.306Z,78.30
2023-05-13T01:01:34.400Z,78.00
2023-05-13T01:04:46.424Z,79.30
2023-05-13T01:07:24.416Z,79.30
2023-05-13T01:10:03.358Z,78.90
2023-05-13T01:12:34.861Z,78.60
2023-05-13T01:15:12.545Z,78.50
2023-05-13T01:18:05.564Z,79.00
2023-05-13T01:20:34.634Z,78.90
2023-05-13T01:23:03.924Z,78.90
2023-05-13T01:25:31.168Z,79.30
2023-05-13T01:27:58.402Z,79.40
2023-05-13T01:30:26.699Z,79.00
2023-05-13T01:32:54.087Z,79.00
2023-05-13T01:35:21.675Z,78.80
2023-05-13T01:37:50.213Z,78.90
2023-05-13T01:40:31.091Z,79.20
2023-05-13T01:43:02.681Z,79.40
2023-05-13T01:45:30.439Z,79.50
2023-05-13T01:47:58.059Z,79.90
2023-05-13T01:50:29.280Z,79.90
2023-05-13T01:52:57.384Z,80.80
2023-05-13T01:55:24.502Z,80.20
2023-05-13T01:57:51.856Z,80.10
2023-05-13T02:00:18.979Z,79.80
2023-05-13T02:02:49.181Z,79.70
2023-05-13T02:05:16.748Z,80.20
2023-05-13T02:07:44.417Z,80.70
2023-05-13T02:10:11.788Z,80.70
2023-05-13T02:12:38.704Z,81.00
2023-05-13T02:15:06.418Z,80.80
2023-05-13T02:17:33.366Z,81.20
2023-05-13T02:20:00.453Z,81.60
2023-05-13T02:22:27.396Z,81.70
2023-05-13T02:24:54.324Z,81.40
2023-05-13T02:27:21.237Z,81.70
2023-05-13T02:29:48.151Z,81.40
2023-05-13T02:32:15.136Z,81.40
2023-05-13T02:34:42.053Z,81.30
2023-05-13T02:37:09.118Z,81.70
2023-05-13T02:39:43.606Z,81.50
2023-05-13T02:42:11.269Z,81.60
2023-05-13T02:44:38.169Z,81.60
2023-05-13T02:47:05.671Z,81.50
2023-05-13T02:49:32.581Z,81.80
2023-05-13T02:51:59.585Z,82.00
2023-05-13T02:54:33.058Z,82.10
2023-05-13T02:56:59.970Z,82.40
2023-05-13T02:59:27.080Z,82.30
2023-05-13T03:01:53.975Z,82.40
2023-05-13T03:04:20.881Z,82.50
2023-05-13T03:06:48.265Z,82.70
2023-05-13T03:09:15.434Z,82.60
2023-05-13T03:11:42.332Z,82.70
2023-05-13T03:14:09.211Z,83.00
2023-05-13T03:16:38.170Z,82.90
2023-05-13T03:19:05.209Z,83.00
2023-05-13T03:21:32.135Z,83.50
2023-05-13T03:23:59.117Z,83.30
2023-05-13T03:26:26.784Z,83.40
2023-05-13T03:28:53.676Z,83.80
2023-05-13T03:31:21.587Z,83.80
2023-05-13T03:33:48.956Z,83.90
2023-05-13T03:36:15.914Z,83.90
2023-05-13T03:38:42.951Z,83.90
2023-05-13T03:41:09.950Z,84.00
2023-05-13T03:43:36.926Z,84.00
2023-05-13T03:46:08.198Z,84.20
2023-05-13T03:48:35.473Z,84.20
2023-05-13T03:51:03.649Z,84.70
2023-05-13T03:53:30.607Z,84.50
2023-05-13T03:55:57.974Z,84.50
2023-05-13T03:58:24.878Z,84.70
2023-05-13T04:00:51.797Z,85.00
2023-05-13T04:03:19.249Z,85.00
2023-05-13T04:05:47.374Z,85.50
2023-05-13T04:08:14.533Z,86.40
2023-05-13T04:10:41.437Z,86.20
2023-05-13T04:13:08.358Z,86.80
2023-05-13T04:15:35.328Z,86.90
2023-05-13T04:18:02.329Z,86.50
2023-05-13T04:20:29.270Z,85.80
2023-05-13T04:22:56.480Z,85.20
2023-05-13T04:25:23.427Z,84.50
2023-05-13T04:27:50.451Z,83.80
2023-05-13T04:30:25.162Z,82.90
2023-05-13T04:32:52.120Z,81.60
2023-05-13T04:35:20.129Z,80.70
2023-05-13T04:37:52.027Z,80.20
2023-05-13T04:40:20.183Z,79.60
2023-05-13T04:42:54.452Z,79.10
2023-05-13T04:45:25.360Z,78.80
2023-05-13T04:47:52.421Z,78.40
2023-05-13T04:50:19.616Z,77.90
2023-05-13T04:52:47.638Z,77.50
2023-05-13T04:55:16.611Z,77.20
2023-05-13T04:57:43.574Z,77.40
2023-05-13T05:00:12.136Z,78.00
2023-05-13T05:02:40.860Z,78.20
2023-05-13T05:05:08.151Z,78.20
2023-05-13T05:07:35.068Z,78.20
2023-05-13T05:10:02.055Z,78.20
2023-05-13T05:12:32.336Z,77.90
2023-05-13T05:14:59.253Z,77.60
2023-05-13T05:17:29.212Z,77.30
2023-05-13T05:19:56.351Z,76.80
2023-05-13T05:22:24.315Z,76.80
2023-05-13T05:24:51.247Z,77.00
2023-05-13T05:27:19.306Z,76.80
2023-05-13T05:29:46.218Z,76.40
2023-05-13T05:32:13.163Z,75.90
2023-05-13T05:34:40.130Z,75.60
2023-05-13T05:37:07.149Z,75.50
2023-05-13T05:39:37.074Z,74.80
2023-05-13T05:42:04.198Z,74.50
2023-05-13T05:44:31.127Z,74.50
2023-05-13T05:46:57.992Z,74.60
2023-05-13T05:49:25.199Z,73.90
2023-05-13T05:51:52.359Z,73.40
2023-05-13T05:54:20.745Z,73.50
2023-05-13T05:56:48.288Z,73.30
2023-05-13T05:59:15.341Z,73.50
2023-05-13T06:01:42.263Z,73.50
2023-05-13T06:04:09.460Z,73.40
2023-05-13T06:06:36.733Z,72.70
2023-05-13T06:09:05.800Z,73.20
2023-05-13T06:11:33.829Z,73.30
2023-05-13T06:14:00.809Z,73.40
2023-05-13T06:16:27.833Z,73.10
2023-05-13T06:18:54.775Z,72.90
2023-05-13T06:21:21.765Z,72.80
2023-05-13T06:23:49.565Z,72.10
2023-05-13T06:26:16.520Z,72.00
2023-05-13T06:28:43.371Z,71.80
2023-05-13T06:31:10.303Z,71.40
2023-05-13T06:33:37.722Z,70.60
2023-05-13T06:36:05.223Z,71.00
2023-05-13T06:38:34.509Z,70.70
2023-05-13T06:41:01.815Z,70.60
2023-05-13T06:43:34.742Z,70.10
2023-05-13T06:46:12.940Z,70.00
2023-05-13T06:48:39.905Z,69.00
2023-05-13T06:51:07.157Z,70.10
2023-05-13T06:53:34.038Z,69.40
2023-05-13T06:56:00.982Z,69.70
2023-05-13T06:58:27.877Z,67.80
2023-05-13T07:00:54.819Z,69.20
2023-05-13T07:03:21.800Z,66.90
2023-05-13T07:05:48.739Z,67.00
2023-05-13T07:08:17.934Z,65.90
2023-05-13T07:10:45.128Z,64.60
2023-05-13T07:13:12.381Z,64.30
2023-05-13T07:15:39.384Z,62.60
2023-05-13T07:18:06.383Z,62.40
2023-05-13T07:20:33.405Z,61.50
2023-05-13T07:23:00.315Z,61.10
2023-05-13T07:25:27.231Z,58.50
2023-05-13T07:27:54.201Z,59.00
2023-05-13T07:30:21.473Z,56.80
2023-05-13T07:32:48.673Z,57.00
2023-05-13T07:35:17.094Z,57.70
2023-05-13T07:37:47.518Z,56.10
2023-05-13T07:40:14.553Z,55.20
2023-05-13T07:42:41.496Z,54.00
2023-05-13T07:45:09.163Z,53.90
2023-05-13T07:47:36.224Z,53.80
2023-05-13T07:50:03.604Z,53.50
2023-05-13T07:52:30.554Z,54.10
2023-05-13T07:54:57.481Z,53.60
2023-05-13T07:57:24.438Z,52.90
2023-05-13T07:59:52.709Z,53.20
2023-05-13T08:02:19.974Z,52.50
2023-05-13T08:04:47.269Z,52.10
2023-05-13T08:07:14.245Z,50.20
2023-05-13T08:09:41.150Z,49.90
2023-05-13T08:12:08.271Z,49.50
2023-05-13T08:14:36.104Z,49.80
2023-05-13T08:17:06.318Z,49.00
2023-05-13T08:19:33.241Z,49.40
2023-05-13T08:22:00.184Z,49.20
2023-05-13T08:24:27.099Z,49.50
2023-05-13T08:26:54.010Z,49.70
2023-05-13T08:29:20.896Z,48.10
2023-05-13T08:31:47.849Z,48.70
2023-05-13T08:34:14.972Z,48.40
2023-05-13T08:36:41.842Z,46.40
2023-05-13T08:39:08.807Z,46.60
2023-05-13T08:41:35.828Z,46.40
2023-05-13T08:44:06.808Z,46.30
2023-05-13T08:46:35.053Z,46.40
2023-05-13T08:49:02.449Z,45.00
2023-05-13T08:51:29.453Z,45.40
2023-05-13T08:53:56.690Z,45.50
2023-05-13T08:56:25.640Z,44.70
2023-05-13T08:58:52.524Z,44.20
2023-05-13T09:01:19.554Z,45.50
2023-05-13T09:04:00.005Z,46.10
2023-05-13T09:06:26.938Z,46.00
2023-05-13T09:08:54.877Z,45.20
2023-05-13T09:11:22.083Z,43.70
2023-05-13T09:14:11.748Z,43.60
2023-05-13T09:16:38.953Z,43.60
2023-05-13T09:19:08.211Z,43.60
2023-05-13T09:21:36.057Z,43.70
2023-05-13T09:24:18.062Z,45.30
2023-05-13T09:26:46.089Z,42.40
2023-05-13T09:29:22.685Z,42.90
2023-05-13T09:31:54.978Z,42.00
2023-05-13T09:34:34.254Z,42.70
2023-05-13T09:37:06.886Z,42.40
2023-05-13T09:39:41.661Z,42.10
2023-05-13T09:42:16.862Z,40.10
2023-05-13T09:44:45.913Z,37.50
2023-05-13T09:47:17.038Z,36.90
2023-05-13T09:49:47.041Z,38.20
2023-05-13T09:52:17.094Z,38.10
2023-05-13T09:54:44.839Z,36.20
2023-05-13T09:57:13.836Z,35.10
2023-05-13T09:59:41.546Z,35.60
2023-05-13T10:02:08.886Z,36.20
2023-05-13T10:04:35.847Z,34.30
2023-05-13T10:07:05.092Z,34.30
2023-05-13T10:09:36.752Z,34.40
2023-05-13T10:12:07.585Z,35.30
2023-05-13T10:14:37.426Z,35.60
2023-05-13T10:17:05.456Z,36.00
2023-05-13T10:19:32.951Z,35.10
2023-05-13T10:22:00.396Z,35.00
2023-05-13T10:24:28.977Z,34.20
2023-05-13T10:26:58.050Z,34.30
2023-05-13T10:29:26.580Z,33.90
2023-05-13T10:31:54.425Z,35.20
2023-05-13T10:34:22.949Z,35.00
2023-05-13T10:37:14.083Z,35.20
2023-05-13T10:40:47.607Z,35.40
2023-05-13T10:43:38.192Z,34.60
2023-05-13T10:46:12.445Z,34.90
2023-05-13T10:48:43.004Z,34.40
2023-05-13T10:51:14.906Z,34.30
2023-05-13T10:53:52.899Z,33.60
2023-05-13T10:56:26.065Z,34.20
2023-05-13T10:59:02.443Z,34.70
2023-05-13T11:01:31.191Z,34.40
2023-05-13T11:04:01.352Z,34.10
2023-05-13T11:06:38.529Z,33.30
2023-05-13T11:09:28.519Z,33.90
2023-05-13T11:11:57.908Z,34.50
2023-05-13T11:14:31.031Z,33.80
2023-05-13T11:17:01.076Z,34.10
2023-05-13T11:19:34.646Z,34.40
2023-05-13T11:22:13.597Z,34.80
2023-05-13T11:24:41.264Z,34.80
2023-05-13T11:27:20.889Z,33.80
2023-05-13T11:29:57.957Z,33.30
2023-05-13T11:32:58.081Z,33.30
2023-05-13T11:35:27.460Z,34.40
2023-05-13T11:37:58.238Z,34.60
2023-05-13T11:40:35.058Z,34.80
2023-05-13T11:43:02.388Z,34.40
2023-05-13T11:45:30.428Z,34.00
2023-05-13T11:47:57.895Z,34.20
2023-05-13T11:50:30.135Z,33.70
2023-05-13T11:53:00.123Z,34.50
2023-05-13T11:55:32.705Z,34.20
2023-05-13T11:58:00.287Z,34.40
2023-05-13T12:00:32.213Z,34.40
2023-05-13T12:03:00.644Z,34.60
2023-05-13T12:05:28.140Z,34.30
2023-05-13T12:07:59.280Z,34.80
2023-05-13T12:10:26.743Z,34.80
2023-05-13T12:12:54.284Z,35.00
2023-05-13T12:15:22.241Z,34.90
2023-05-13T12:17:49.855Z,34.20
2023-05-13T12:20:22.093Z,34.70
2023-05-13T12:22:50.979Z,35.20
2023-05-13T12:25:37.498Z,34.80
2023-05-13T12:28:24.655Z,35.00
2023-05-13T12:31:03.342Z,34.20
2023-05-13T12:33:34.238Z,35.00
2023-05-13T12:36:32.107Z,35.00
2023-05-13T12:39:02.513Z,35.00
2023-05-13T12:41:32.633Z,34.80
2023-05-13T12:44:09.030Z,34.40
2023-05-13T12:46:36.716Z,34.40
2023-05-13T12:49:05.335Z,35.40
2023-05-13T12:51:35.493Z,35.90
2023-05-13T12:54:02.445Z,33.90
2023-05-13T12:56:29.331Z,34.50
2023-05-13T12:58:56.526Z,33.80
2023-05-13T13:01:23.497Z,34.20
2023-05-13T13:03:50.804Z,35.30
2023-05-13T13:06:18.820Z,35.20
2023-05-13T13:08:45.814Z,34.60
2023-05-13T13:11:18.575Z,34.60
2023-05-13T13:13:46.668Z,34.40
2023-05-13T13:16:14.134Z,34.30
2023-05-13T13:18:42.234Z,34.60
2023-05-13T13:21:10.879Z,35.10
2023-05-13T13:23:37.867Z,35.20
2023-05-13T13:26:04.854Z,34.60
2023-05-13T13:28:31.987Z,35.10
2023-05-13T13:30:59.934Z,35.50
2023-05-13T13:33:26.970Z,34.60
2023-05-13T13:35:55.120Z,33.60
2023-05-13T13:38:21.998Z,33.80
2023-05-13T13:40:48.880Z,33.20
2023-05-13T13:43:15.867Z,33.60
2023-05-13T13:45:42.830Z,33.00
2023-05-13T13:48:09.788Z,32.80
2023-05-13T13:50:36.790Z,33.00
2023-05-13T13:53:03.710Z,33.10
2023-05-13T13:55:30.878Z,32.90
2023-05-13T13:57:57.745Z,33.20
2023-05-13T14:00:24.820Z,33.00
2023-05-13T14:02:51.916Z,32.60
2023-05-13T14:05:19.493Z,33.10
2023-05-13T14:07:48.284Z,32.70
2023-05-13T14:10:15.351Z,33.10
2023-05-13T14:12:42.336Z,31.90
2023-05-13T14:15:09.511Z,31.10
2023-05-13T14:17:36.465Z,31.90
2023-05-13T14:20:03.977Z,30.90
2023-05-13T14:22:30.879Z,31.00
2023-05-13T14:24:58.989Z,30.50
2023-05-13T14:27:25.923Z,30.70
2023-05-13T14:29:52.850Z,31.00
2023-05-13T14:32:19.735Z,31.00
2023-05-13T14:34:46.624Z,31.10
2023-05-13T14:37:13.520Z,30.70
2023-05-13T14:39:40.598Z,31.30
2023-05-13T14:42:07.522Z,31.50
2023-05-13T14:44:34.433Z,32.10
2023-05-13T14:47:01.415Z,32.40
2023-05-13T14:49:28.450Z,31.50
2023-05-13T14:51:55.555Z,32.00
2023-05-13T14:54:22.459Z,31.20
2023-05-13T14:56:50.457Z,31.10
2023-05-13T14:59:17.355Z,31.80
2023-05-13T15:01:44.744Z,31.00
2023-05-13T15:04:11.658Z,30.90
2023-05-13T15:06:39.008Z,31.40
2023-05-13T15:09:07.045Z,30.90
2023-05-13T15:11:33.954Z,31.30
2023-05-13T15:14:02.165Z,31.10
2023-05-13T15:16:29.079Z,31.40
2023-05-13T15:18:56.227Z,30.90
2023-05-13T15:21:23.242Z,34.60
2023-05-13T15:23:50.217Z,36.20
2023-05-13T15:26:17.125Z,37.00
2023-05-13T15:28:44.015Z,37.00
2023-05-13T15:31:10.968Z,37.40
2023-05-13T15:33:37.917Z,37.70
2023-05-13T15:36:06.149Z,37.90
2023-05-13T15:38:33.105Z,38.80
2023-05-13T15:41:00.361Z,39.20
2023-05-13T15:43:28.311Z,39.60
2023-05-13T15:45:55.363Z,40.20
2023-05-13T15:48:22.456Z,40.50
2023-05-13T15:50:49.346Z,41.00
2023-05-13T15:53:16.245Z,41.00
2023-05-13T15:55:43.132Z,41.30
2023-05-13T15:58:10.013Z,41.50
2023-05-13T16:00:36.934Z,41.60
2023-05-13T16:03:04.013Z,41.00
2023-05-13T16:05:31.019Z,40.90
2023-05-13T16:07:57.985Z,40.80
2023-05-13T16:10:25.078Z,42.00
2023-05-13T16:12:52.278Z,41.80
2023-05-13T16:15:19.191Z,42.00
2023-05-13T16:17:46.169Z,42.20
2023-05-13T16:20:13.519Z,41.90
2023-05-13T16:22:40.676Z,42.00
2023-05-13T16:25:09.987Z,42.10
2023-05-13T16:27:39.209Z,41.70
2023-05-13T16:30:07.446Z,42.10
2023-05-13T16:32:35.039Z,41.50
2023-05-13T16:35:03.241Z,42.10
2023-05-13T16:37:34.471Z,41.50
2023-05-13T16:40:01.389Z,41.80
2023-05-13T16:42:28.292Z,41.90
2023-05-13T16:44:55.253Z,41.80
2023-05-13T16:47:22.214Z,41.60
2023-05-13T16:49:50.203Z,41.00
2023-05-13T16:52:17.183Z,40.40
2023-05-13T16:54:44.673Z,39.90
2023-05-13T16:57:11.713Z,39.20
2023-05-13T16:59:38.590Z,39.50
2023-05-13T17:02:06.153Z,39.50
2023-05-13T17:04:33.996Z,39.50
2023-05-13T17:07:01.372Z,39.10
2023-05-13T17:09:30.904Z,39.40
2023-05-13T17:11:57.956Z,39.40
2023-05-13T17:14:25.318Z,39.20
2023-05-13T17:16:52.460Z,38.90
2023-05-13T17:19:19.709Z,39.00
2023-05-13T17:21:47.098Z,38.70
2023-05-13T17:24:13.977Z,38.80
2023-05-13T17:26:40.879Z,38.90
2023-05-13T17:29:07.901Z,39.20
2023-05-13T17:31:34.826Z,39.30
2023-05-13T17:34:01.743Z,39.80
2023-05-13T17:36:28.678Z,39.80
2023-05-13T17:38:55.611Z,40.30
2023-05-13T17:41:22.568Z,40.70
2023-05-13T17:43:49.466Z,41.10
2023-05-13T17:46:16.408Z,41.70
2023-05-13T17:48:43.500Z,41.80
2023-05-13T17:51:11.153Z,42.10
2023-05-13T17:53:38.070Z,42.50
2023-05-13T17:56:05.682Z,42.70
2023-05-13T17:58:32.635Z,42.70
2023-05-13T18:00:59.515Z,42.90
2023-05-13T18:03:26.750Z,43.10
2023-05-13T18:05:53.737Z,43.60
2023-05-13T18:08:20.821Z,43.70
2023-05-13T18:10:48.533Z,44.60
2023-05-13T18:13:15.725Z,44.80
2023-05-13T18:15:42.635Z,45.00
2023-05-13T18:18:09.919Z,45.30
2023-05-13T18:20:37.574Z,45.80
2023-05-13T18:23:04.493Z,45.90
2023-05-13T18:25:32.714Z,46.30
2023-05-13T18:28:00.531Z,46.20
2023-05-13T18:30:28.243Z,46.50
2023-05-13T18:32:56.289Z,47.20
2023-05-13T18:35:24.305Z,47.00
2023-05-13T18:37:51.261Z,47.90
2023-05-13T18:40:18.731Z,47.80
2023-05-13T18:42:45.622Z,47.30
2023-05-13T18:45:12.530Z,47.70
2023-05-13T18:47:39.416Z,47.80
2023-05-13T18:50:06.741Z,48.00
2023-05-13T18:52:33.860Z,48.50
2023-05-13T18:55:05.051Z,48.60
2023-05-13T18:57:31.946Z,48.90
2023-05-13T18:59:58.890Z,49.30
2023-05-13T19:02:26.235Z,49.30
2023-05-13T19:04:53.426Z,49.60
2023-05-13T19:07:20.357Z,49.80
2023-05-13T19:09:48.370Z,49.90
2023-05-13T19:12:15.276Z,50.20
2023-05-13T19:14:42.433Z,50.90
2023-05-13T19:17:09.387Z,50.60
2023-05-13T19:19:36.523Z,50.90
2023-05-13T19:22:03.633Z,51.00
2023-05-13T19:24:30.519Z,51.50
2023-05-13T19:26:57.401Z,51.40
2023-05-13T19:29:24.279Z,51.60
2023-05-13T19:31:51.165Z,51.90
2023-05-13T19:34:18.060Z,52.20
2023-05-13T19:36:46.366Z,52.20
2023-05-13T19:39:13.248Z,52.30
2023-05-13T19:41:40.146Z,53.10
2023-05-13T19:44:07.290Z,53.00
2023-05-13T19:46:34.236Z,53.20
2023-05-13T19:49:01.167Z,53.40
2023-05-13T19:51:28.054Z,53.50
2023-05-13T19:53:54.969Z,53.70
2023-05-13T19:56:21.874Z,53.90
2023-05-13T19:58:49.010Z,54.10
2023-05-13T20:01:15.944Z,54.50
2023-05-13T20:03:43.006Z,54.50
2023-05-13T20:06:10.075Z,54.70
2023-05-13T20:08:38.269Z,54.90
2023-05-13T20:11:05.137Z,55.00
2023-05-13T20:13:32.487Z,55.60
2023-05-13T20:15:59.351Z,55.80
2023-05-13T20:18:26.266Z,56.20
2023-05-13T20:20:53.670Z,56.50
2023-05-13T20:23:21.035Z,56.70
2023-05-13T20:25:47.909Z,56.90
2023-05-13T20:28:14.849Z,57.10
2023-05-13T20:30:44.878Z,57.20
2023-05-13T20:33:12.871Z,57.40
2023-05-13T20:35:39.711Z,57.90
2023-05-13T20:38:06.920Z,58.10
2023-05-13T20:40:33.841Z,58.10
2023-05-13T20:43:01.573Z,58.30
2023-05-13T20:45:28.697Z,58.70
2023-05-13T20:47:59.362Z,58.60
2023-05-13T20:50:27.655Z,58.80
2023-05-13T20:52:55.459Z,58.80
2023-05-13T20:55:22.589Z,58.90
2023-05-13T20:57:51.052Z,59.10
2023-05-13T21:00:18.223Z,59.60
2023-05-13T21:02:45.712Z,59.80
2023-05-13T21:05:12.835Z,60.00
2023-05-13T21:07:39.815Z,60.50
2023-05-13T21:10:07.925Z,61.20
2023-05-13T21:12:34.772Z,61.60
2023-05-13T21:15:01.636Z,61.80
2023-05-13T21:17:28.531Z,62.40
2023-05-13T21:19:55.431Z,63.00
2023-05-13T21:22:22.321Z,63.30
2023-05-13T21:24:50.142Z,63.50
2023-05-13T21:27:16.984Z,63.70
2023-05-13T21:29:43.870Z,63.70
2023-05-13T21:32:11.933Z,64.00
2023-05-13T21:34:38.902Z,64.50
2023-05-13T21:37:05.934Z,65.60
2023-05-13T21:39:32.842Z,65.60
2023-05-13T21:42:00.662Z,65.70
2023-05-13T21:44:28.921Z,66.40
2023-05-13T21:46:55.874Z,66.60
2023-05-13T21:49:22.872Z,66.90
2023-05-13T21:51:49.852Z,67.30
2023-05-13T21:54:18.167Z,67.90
2023-05-13T21:56:45.207Z,68.20
2023-05-13T21:59:12.115Z,69.10
2023-05-13T22:01:39.032Z,68.50
2023-05-13T22:04:05.960Z,68.60
2023-05-13T22:06:33.517Z,68.90
2023-05-13T22:09:01.277Z,69.10
2023-05-13T22:11:28.233Z,69.60
2023-05-13T22:13:55.147Z,69.60
2023-05-13T22:16:22.303Z,70.00
2023-05-13T22:18:50.877Z,70.20
2023-05-13T22:21:17.835Z,70.30
2023-05-13T22:23:44.716Z,70.10
2023-05-13T22:26:12.030Z,70.40
2023-05-13T22:28:39.032Z,71.40
2023-05-13T22:31:05.920Z,71.50
2023-05-13T22:33:32.802Z,72.20
2023-05-13T22:35:59.689Z,72.60
2023-05-13T22:38:26.596Z,72.80
2023-05-13T22:40:53.473Z,72.50
2023-05-13T22:43:20.393Z,72.80
2023-05-13T22:45:47.291Z,73.80
2023-05-13T22:48:15.076Z,73.70
2023-05-13T22:50:41.964Z,74.10
2023-05-13T22:53:08.848Z,74.30
2023-05-13T22:55:35.750Z,75.20
2023-05-13T22:58:02.713Z,75.10
2023-05-13T23:00:29.607Z,75.00
2023-05-13T23:02:57.460Z,74.90
2023-05-13T23:05:24.390Z,75.00
2023-05-13T23:07:51.273Z,75.30
2023-05-13T23:10:18.195Z,75.70
2023-05-13T23:12:45.077Z,76.30
2023-05-13T23:15:14.275Z,76.10
2023-05-13T23:17:41.228Z,76.30
2023-05-13T23:20:08.877Z,76.60
2023-05-13T23:22:35.894Z,76.80
2023-05-13T23:25:03.680Z,76.80
2023-05-13T23:27:31.498Z,77.30
2023-05-13T23:29:59.216Z,77.60
2023-05-13T23:32:26.477Z,77.60
2023-05-13T23:34:53.404Z,77.50
2023-05-13T23:37:21.813Z,77.50
2023-05-13T23:39:48.723Z,77.60
2023-05-13T23:42:16.438Z,77.50
2023-05-13T23:44:43.334Z,78.00
2023-05-13T23:47:11.030Z,78.10
2023-05-13T23:49:38.193Z,78.40
2023-05-13T23:52:05.463Z,79.30
2023-05-13T23:54:32.395Z,78.70
2023-05-13T23:56:59.286Z,78.80
2023-05-13T23:59:26.324Z,79.20
